Airfield :
LOGIN :

Register | Disclaimer

   EN    FR    IT 

 










Legend :    VFR   Marginal VFR   IFR   Intensive IFR   Very Intensive IFR
Visi :
Ceiling :
>= 8 km
>= 3000ft
5 to 8 km
1000 to 3000 ft
1500m to 5 km
500 to 1000 ft
800 to 1500m
200 to 500 ft
< 800m
< 200 ft
Symbols :   Thunderstorms  Fog  Heavy snow  Heavy precipitations  Wind > 20 kt
SIGMETs :     Misc.  Thunderstorms  Icing  Turbulence  Mountain Waves  Volcanic Ashes






- Airport Elevation : 779 ft
- IATA code : CMF


LFLB - Chambery / Aix-Les-Bains

CURRENT METAR :
  • 280500Z AUTO 17004KT 9000 -RA SCT043 OVC060 08/08 Q1011 NOSIG

EXPIRED METARs :
  • 280430Z AUTO 19004KT 8000 -RA FEW026 SCT036 BKN042 09/08 Q1011 NOSIG
  • 280400Z AUTO 19005KT 9999 -RA BKN027 BKN040 BKN050 09/08 Q1011 NOSIG
  • 280330Z AUTO 18006KT 9999 -RA BKN028 BKN037 OVC044 09/08 Q1011 NOSIG
  • 280300Z AUTO 20003KT 160V250 9999 BKN027 OVC040 09/08 Q1011 NOSIG
  • 280230Z AUTO 20007KT 9999 SCT028 OVC039 09/07 Q1010 NOSIG

TAF TAF LFLB
Valid from the 28 at 00:00 until the 29 at 00:00 UTC


272300Z 2800/2824 VRB03KT 9999 FEW045 BKN060
PROB40
TEMPO 2819/2824 4000 RA BKN020



MET'MAP, your aeronautical weather chart ! - Copyright ORBIFLY December 2007 - Disclaimer

ORBIFLY MET'MAP TEAM :

Programming & Development : Alexandra Zaïnal
Concept & original design : Baudouin d'Aumeries
Assistance for programming : Marc-Olivier Méhu
Technical & hardware support : Manuel Goepfert

Contact : metmap@orbifly.com




SOURCES & CREDITS :

   NOAA